createdAt,value
2022-10-13T00:01:47.439Z,9.00
2022-10-13T00:04:13.970Z,9.98
2022-10-13T00:06:40.553Z,10.18
2022-10-13T00:09:07.460Z,9.65
2022-10-13T00:11:34.092Z,9.30
2022-10-13T00:14:02.082Z,8.52
2022-10-13T00:16:30.224Z,9.23
2022-10-13T00:18:56.918Z,9.73
2022-10-13T00:21:24.561Z,10.15
2022-10-13T00:23:51.912Z,11.15
2022-10-13T00:26:22.372Z,8.68
2022-10-13T00:28:52.479Z,10.05
2022-10-13T00:31:24.153Z,9.80
2022-10-13T00:33:50.968Z,8.90
2022-10-13T00:36:18.492Z,9.70
2022-10-13T00:38:45.498Z,9.75
2022-10-13T00:41:12.537Z,11.18
2022-10-13T00:43:49.439Z,9.77
2022-10-13T00:46:16.389Z,10.73
2022-10-13T00:48:45.637Z,9.75
2022-10-13T00:51:14.644Z,10.25
2022-10-13T00:53:41.312Z,10.45
2022-10-13T00:56:09.057Z,9.63
2022-10-13T00:58:36.513Z,10.40
2022-10-13T01:01:04.093Z,9.25
2022-10-13T01:03:30.825Z,10.57
2022-10-13T01:05:59.185Z,11.15
2022-10-13T01:08:29.069Z,10.50
2022-10-13T01:10:58.031Z,11.52
2022-10-13T01:13:39.666Z,10.00
2022-10-13T01:16:12.702Z,10.52
2022-10-13T01:18:52.524Z,9.57
2022-10-13T01:21:38.564Z,9.73
2022-10-13T01:24:05.140Z,10.23
2022-10-13T01:26:31.702Z,9.95
2022-10-13T01:29:00.988Z,9.50
2022-10-13T01:31:43.262Z,9.70
2022-10-13T01:34:26.976Z,10.32
2022-10-13T01:36:53.550Z,8.60
2022-10-13T01:39:24.770Z,8.85
2022-10-13T01:41:53.547Z,8.98
2022-10-13T01:44:25.544Z,9.32
2022-10-13T01:46:55.158Z,9.40
2022-10-13T01:49:23.749Z,10.30
2022-10-13T01:51:50.397Z,10.80
2022-10-13T01:54:17.020Z,10.35
2022-10-13T01:56:51.448Z,10.77
2022-10-13T01:59:18.058Z,9.38
2022-10-13T02:01:58.829Z,9.32
2022-10-13T02:04:25.432Z,9.50
2022-10-13T02:06:56.769Z,9.75
2022-10-13T02:09:41.397Z,9.57
2022-10-13T02:12:19.396Z,9.57
2022-10-13T02:14:48.171Z,9.27
2022-10-13T02:17:15.175Z,9.85
2022-10-13T02:19:45.073Z,9.80
2022-10-13T02:22:13.369Z,9.60
2022-10-13T02:24:40.143Z,9.93
2022-10-13T02:27:06.931Z,10.02
2022-10-13T02:29:33.601Z,8.43
2022-10-13T02:32:00.323Z,7.78
2022-10-13T02:34:26.942Z,9.23
2022-10-13T02:36:53.530Z,9.50
2022-10-13T02:39:20.102Z,9.30
2022-10-13T02:41:46.722Z,9.45
2022-10-13T02:44:13.322Z,8.43
2022-10-13T02:46:42.582Z,8.88
2022-10-13T02:49:09.964Z,8.73
2022-10-13T02:51:40.071Z,8.93
2022-10-13T02:54:07.530Z,9.80
2022-10-13T02:56:34.206Z,9.63
2022-10-13T02:59:00.777Z,9.55
2022-10-13T03:01:27.418Z,9.00
2022-10-13T03:03:54.147Z,9.43
2022-10-13T03:06:21.316Z,9.95
2022-10-13T03:08:47.955Z,10.82
2022-10-13T03:11:14.555Z,9.68
2022-10-13T03:13:41.105Z,8.98
2022-10-13T03:16:07.776Z,8.88
2022-10-13T03:18:34.507Z,9.93
2022-10-13T03:21:02.979Z,10.00
2022-10-13T03:23:29.566Z,9.98
2022-10-13T03:25:56.278Z,10.18
2022-10-13T03:28:22.973Z,10.30
2022-10-13T03:30:51.235Z,9.60
2022-10-13T03:33:17.802Z,9.65
2022-10-13T03:35:44.462Z,9.88
2022-10-13T03:38:11.085Z,9.48
2022-10-13T03:40:38.740Z,10.27
2022-10-13T03:43:05.375Z,9.43
2022-10-13T03:45:31.979Z,9.40
2022-10-13T03:47:58.754Z,9.05
2022-10-13T03:50:25.824Z,9.57
2022-10-13T03:52:53.814Z,9.82
2022-10-13T03:55:20.436Z,9.88
2022-10-13T03:57:47.018Z,9.43
2022-10-13T04:00:14.011Z,9.65
2022-10-13T04:02:40.573Z,9.68
2022-10-13T04:05:07.278Z,9.93
2022-10-13T04:07:33.898Z,9.80
2022-10-13T04:10:06.842Z,9.68
2022-10-13T04:12:36.258Z,11.10
2022-10-13T04:15:02.951Z,9.95
2022-10-13T04:17:29.556Z,10.63
2022-10-13T04:19:56.163Z,10.70
2022-10-13T04:22:22.930Z,10.77
2022-10-13T04:24:49.715Z,11.40
2022-10-13T04:27:18.903Z,12.55
2022-10-13T04:29:45.649Z,11.43
2022-10-13T04:32:12.333Z,11.38
2022-10-13T04:34:38.933Z,12.27
2022-10-13T04:37:05.457Z,12.63
2022-10-13T04:39:32.067Z,12.93
2022-10-13T04:41:58.674Z,12.20
2022-10-13T04:44:25.421Z,12.40
2022-10-13T04:46:52.009Z,11.35
2022-10-13T04:49:18.563Z,12.10
2022-10-13T04:51:45.177Z,10.82
2022-10-13T04:54:11.788Z,12.40
2022-10-13T04:56:38.394Z,13.13
2022-10-13T04:59:07.920Z,13.50
2022-10-13T05:01:35.936Z,13.05
2022-10-13T05:04:05.714Z,14.93
2022-10-13T05:06:39.289Z,15.18
2022-10-13T05:09:16.240Z,14.38
2022-10-13T05:11:43.022Z,15.32
2022-10-13T05:14:09.725Z,15.60
2022-10-13T05:16:36.326Z,16.42
2022-10-13T05:19:03.687Z,15.30
2022-10-13T05:21:30.264Z,15.35
2022-10-13T05:23:57.346Z,15.10
2022-10-13T05:26:29.055Z,15.63
2022-10-13T05:28:56.598Z,15.60
2022-10-13T05:31:25.899Z,14.88
2022-10-13T05:33:53.574Z,17.23
2022-10-13T05:36:25.015Z,16.08
2022-10-13T05:38:55.874Z,15.57
2022-10-13T05:41:23.375Z,14.00
2022-10-13T05:43:51.220Z,14.20
2022-10-13T05:46:17.881Z,12.98
2022-10-13T05:48:44.494Z,14.13
2022-10-13T05:51:13.663Z,14.20
2022-10-13T05:53:45.549Z,16.38
2022-10-13T05:56:17.817Z,15.65
2022-10-13T05:58:45.912Z,14.48
2022-10-13T06:01:15.154Z,14.68
2022-10-13T06:03:42.169Z,13.98
2022-10-13T06:06:09.234Z,14.93
2022-10-13T06:08:36.329Z,13.20
2022-10-13T06:11:03.720Z,15.18
2022-10-13T06:13:30.314Z,14.80
2022-10-13T06:15:56.897Z,12.80
2022-10-13T06:18:23.544Z,14.57
2022-10-13T06:20:50.236Z,14.90
2022-10-13T06:23:16.940Z,15.57
2022-10-13T06:25:47.023Z,14.05
2022-10-13T06:28:13.626Z,14.82
2022-10-13T06:30:40.242Z,15.30
2022-10-13T06:33:06.853Z,15.48
2022-10-13T06:35:34.641Z,15.27
2022-10-13T06:38:01.221Z,15.48
2022-10-13T06:40:27.866Z,14.18
2022-10-13T06:42:54.449Z,15.00
2022-10-13T06:45:22.544Z,16.48
2022-10-13T06:47:49.141Z,15.38
2022-10-13T06:50:15.805Z,14.50
2022-10-13T06:52:43.502Z,13.82
2022-10-13T06:55:10.106Z,13.02
2022-10-13T06:57:36.786Z,13.55
2022-10-13T07:00:06.898Z,13.88
2022-10-13T07:02:33.599Z,15.60
2022-10-13T07:05:00.570Z,15.48
2022-10-13T07:07:27.184Z,16.90
2022-10-13T07:09:54.112Z,16.10
2022-10-13T07:12:22.185Z,15.38
2022-10-13T07:14:49.036Z,16.85
2022-10-13T07:17:15.861Z,16.40
2022-10-13T07:19:42.616Z,15.55
2022-10-13T07:22:09.197Z,16.15
2022-10-13T07:24:35.827Z,15.90
2022-10-13T07:27:07.485Z,17.27
2022-10-13T07:29:34.553Z,16.92
2022-10-13T07:32:01.136Z,17.63
2022-10-13T07:34:27.773Z,16.95
2022-10-13T07:36:54.396Z,17.35
2022-10-13T07:39:20.968Z,16.65
2022-10-13T07:41:51.058Z,17.27
2022-10-13T07:44:18.144Z,17.48
2022-10-13T07:46:44.897Z,18.08
2022-10-13T07:49:15.230Z,17.40
2022-10-13T07:51:43.159Z,17.02
2022-10-13T07:54:10.080Z,17.33
2022-10-13T07:56:37.009Z,17.25
2022-10-13T07:59:05.360Z,17.55
2022-10-13T08:01:32.230Z,17.80
2022-10-13T08:03:59.325Z,17.55
2022-10-13T08:06:26.357Z,18.02
2022-10-13T08:08:54.702Z,16.92
2022-10-13T08:11:22.684Z,17.83
2022-10-13T08:13:49.839Z,16.60
2022-10-13T08:16:20.276Z,17.67
2022-10-13T08:18:47.586Z,17.55
2022-10-13T08:24:03.323Z,16.80
2022-10-13T08:26:29.950Z,17.50
2022-10-13T08:29:16.814Z,17.80
2022-10-13T08:31:43.707Z,15.98
2022-10-13T08:34:10.754Z,16.65
2022-10-13T08:36:37.644Z,16.95
2022-10-13T08:39:04.565Z,16.98
2022-10-13T08:41:32.536Z,17.17
2022-10-13T08:44:49.480Z,17.55
2022-10-13T08:47:13.090Z,16.30
2022-10-13T08:49:41.198Z,16.10
2022-10-13T08:52:13.391Z,15.98
2022-10-13T08:54:39.968Z,16.02
2022-10-13T08:57:08.487Z,16.50
2022-10-13T08:59:35.113Z,16.83
2022-10-13T09:02:03.369Z,16.70
2022-10-13T09:04:36.425Z,16.35
2022-10-13T09:07:06.218Z,16.25
2022-10-13T09:09:33.209Z,17.02
2022-10-13T09:11:59.933Z,16.95
2022-10-13T09:14:31.643Z,17.33
2022-10-13T09:17:16.193Z,16.25
2022-10-13T09:19:43.345Z,16.67
2022-10-13T09:22:20.655Z,16.05
2022-10-13T09:24:47.451Z,17.17
2022-10-13T09:27:17.079Z,16.10
2022-10-13T09:29:44.471Z,15.27
2022-10-13T09:32:15.004Z,16.70
2022-10-13T09:34:41.680Z,16.20
2022-10-13T09:37:16.773Z,16.95
2022-10-13T09:39:43.543Z,16.85
2022-10-13T09:42:16.549Z,16.73
2022-10-13T09:44:43.487Z,15.80
2022-10-13T09:47:17.260Z,16.00
2022-10-13T09:49:43.934Z,16.35
2022-10-13T09:52:13.567Z,16.60
2022-10-13T09:54:40.146Z,15.75
2022-10-13T09:57:26.719Z,15.93
2022-10-13T09:59:53.414Z,15.23
2022-10-13T10:02:38.393Z,16.73
2022-10-13T10:05:07.750Z,15.45
2022-10-13T10:07:34.382Z,15.45
2022-10-13T10:10:04.837Z,15.70
2022-10-13T10:12:34.796Z,15.95
2022-10-13T10:15:01.861Z,15.00
2022-10-13T10:18:06.856Z,16.30
2022-10-13T10:20:36.449Z,16.10
2022-10-13T10:23:08.023Z,15.68
2022-10-13T10:25:34.647Z,15.45
2022-10-13T10:28:16.352Z,15.93
2022-10-13T10:30:54.039Z,16.55
2022-10-13T10:33:23.312Z,15.55
2022-10-13T10:35:57.969Z,15.95
2022-10-13T10:38:30.485Z,16.23
2022-10-13T10:41:15.887Z,15.45
2022-10-13T10:43:53.271Z,15.90
2022-10-13T10:46:23.495Z,15.77
2022-10-13T10:48:53.992Z,16.48
2022-10-13T10:51:22.603Z,16.77
2022-10-13T10:53:55.085Z,15.85
2022-10-13T10:56:54.369Z,15.38
2022-10-13T10:59:23.903Z,17.23
2022-10-13T11:02:02.763Z,16.17
2022-10-13T11:04:32.132Z,16.20
2022-10-13T11:06:58.877Z,14.80
2022-10-13T11:09:41.071Z,15.07
2022-10-13T11:12:20.283Z,16.10
2022-10-13T11:15:05.967Z,15.77
2022-10-13T11:17:33.905Z,15.25
2022-10-13T11:20:00.678Z,14.93
2022-10-13T11:22:28.386Z,15.73
2022-10-13T11:24:56.729Z,14.77
2022-10-13T11:27:43.637Z,14.93
2022-10-13T11:33:09.149Z,15.43
2022-10-13T11:35:35.691Z,14.35
2022-10-13T11:38:23.146Z,14.07
2022-10-13T11:41:25.529Z,15.05
2022-10-13T11:44:00.045Z,14.52
2022-10-13T11:46:38.712Z,13.90
2022-10-13T11:49:10.469Z,14.50
2022-10-13T11:51:40.115Z,13.68
2022-10-13T11:54:12.812Z,14.50
2022-10-13T11:56:50.551Z,14.43
2022-10-13T11:59:27.329Z,14.68
2022-10-13T12:02:06.015Z,14.55
2022-10-13T12:04:32.680Z,14.73
2022-10-13T12:07:03.871Z,13.43
2022-10-13T12:09:31.720Z,13.25
2022-10-13T12:12:12.496Z,13.40
2022-10-13T12:14:40.818Z,12.85
2022-10-13T12:17:28.099Z,12.98
2022-10-13T12:20:02.016Z,13.50
2022-10-13T12:22:29.248Z,14.65
2022-10-13T12:25:02.939Z,12.82
2022-10-13T12:27:32.717Z,14.02
2022-10-13T12:30:00.363Z,12.75
2022-10-13T12:32:28.939Z,13.98
2022-10-13T12:34:55.588Z,14.75
2022-10-13T12:37:27.065Z,13.50
2022-10-13T12:39:55.537Z,14.13
2022-10-13T12:42:31.495Z,14.50
2022-10-13T12:44:58.972Z,14.90
2022-10-13T12:47:38.551Z,14.52
2022-10-13T12:50:31.869Z,14.70
2022-10-13T12:53:16.983Z,15.13
2022-10-13T12:55:59.175Z,12.93
2022-10-13T12:58:30.219Z,15.20
2022-10-13T13:01:05.412Z,13.68
2022-10-13T13:03:32.462Z,12.70
2022-10-13T13:06:08.229Z,13.27
2022-10-13T13:08:34.794Z,13.20
2022-10-13T13:15:27.156Z,14.00
2022-10-13T13:17:58.945Z,12.68
2022-10-13T13:20:27.540Z,13.10
2022-10-13T13:22:54.623Z,14.27
2022-10-13T13:25:21.346Z,13.55
2022-10-13T13:27:48.322Z,12.95
2022-10-13T13:30:17.557Z,12.93
2022-10-13T13:32:44.150Z,13.50
2022-10-13T13:35:10.808Z,12.48
2022-10-13T13:37:42.812Z,12.65
2022-10-13T13:40:14.984Z,12.52
2022-10-13T13:42:41.717Z,13.70
2022-10-13T13:45:11.934Z,12.80
2022-10-13T13:47:38.530Z,14.15
2022-10-13T13:50:13.173Z,12.73
2022-10-13T13:52:41.727Z,13.07
2022-10-13T13:55:09.532Z,13.63
2022-10-13T13:57:36.183Z,12.35
2022-10-13T14:00:04.848Z,12.57
2022-10-13T14:02:38.011Z,12.60
2022-10-13T14:05:05.049Z,11.60
2022-10-13T14:07:31.600Z,11.80
2022-10-13T14:10:01.798Z,11.13
2022-10-13T14:12:30.224Z,12.73
2022-10-13T14:14:56.971Z,13.88
2022-10-13T14:17:23.593Z,21.55
2022-10-13T14:19:50.157Z,10.77
2022-10-13T14:22:16.798Z,10.35
2022-10-13T14:24:43.377Z,10.18
2022-10-13T14:27:10.543Z,9.52
2022-10-13T14:29:37.369Z,9.65
2022-10-13T14:32:04.101Z,9.90
2022-10-13T14:34:30.879Z,10.05
2022-10-13T14:36:57.461Z,6.45
2022-10-13T14:39:24.237Z,11.07
2022-10-13T14:41:51.030Z,7.63
2022-10-13T14:44:17.773Z,10.00
2022-10-13T14:46:44.836Z,5.35
2022-10-13T14:49:11.560Z,7.20
2022-10-13T14:51:42.201Z,5.07
2022-10-13T14:54:08.751Z,5.72
2022-10-13T14:56:35.427Z,8.23
2022-10-13T14:59:04.144Z,6.65
2022-10-13T15:01:36.373Z,7.80
2022-10-13T15:04:03.334Z,5.68
2022-10-13T15:06:30.898Z,6.68
2022-10-13T15:08:57.851Z,6.00
2022-10-13T15:11:25.380Z,5.57
2022-10-13T15:13:52.155Z,6.13
2022-10-13T15:16:23.012Z,5.32
2022-10-13T15:18:49.753Z,5.35
2022-10-13T15:21:16.994Z,4.95
2022-10-13T15:23:43.934Z,5.10
2022-10-13T15:26:11.115Z,6.18
2022-10-13T15:28:39.395Z,5.68
2022-10-13T15:31:10.295Z,6.90
2022-10-13T15:33:36.889Z,5.55
2022-10-13T15:36:03.730Z,6.10
2022-10-13T15:38:31.017Z,6.25
2022-10-13T15:41:00.762Z,5.70
2022-10-13T15:43:27.901Z,5.00
2022-10-13T15:45:55.924Z,6.20
2022-10-13T15:48:22.616Z,5.70
2022-10-13T15:50:49.278Z,6.22
2022-10-13T15:53:15.933Z,6.28
2022-10-13T15:55:42.808Z,6.13
2022-10-13T15:58:13.526Z,5.68
2022-10-13T16:00:40.950Z,5.30
2022-10-13T16:03:07.808Z,5.13
2022-10-13T16:05:34.434Z,6.85
2022-10-13T16:08:01.058Z,6.25
2022-10-13T16:10:27.782Z,6.30
2022-10-13T16:12:54.427Z,5.93
2022-10-13T16:15:21.072Z,5.50
2022-10-13T16:17:47.737Z,5.75
2022-10-13T16:20:14.418Z,6.18
2022-10-13T16:22:41.187Z,9.38
2022-10-13T16:25:08.562Z,20.52
2022-10-13T16:27:35.170Z,16.92
2022-10-13T16:30:01.856Z,8.55
2022-10-13T16:32:29.112Z,6.63
2022-10-13T16:34:55.924Z,22.23
2022-10-13T16:37:22.917Z,6.05
2022-10-13T16:39:51.921Z,15.45
2022-10-13T16:42:18.840Z,16.08
2022-10-13T16:44:45.418Z,12.88
2022-10-13T16:47:15.992Z,7.40
2022-10-13T16:49:44.935Z,8.55
2022-10-13T16:52:12.340Z,7.55
2022-10-13T16:54:38.925Z,4.75
2022-10-13T16:57:05.478Z,4.57
2022-10-13T16:59:32.123Z,5.93
2022-10-13T17:01:59.445Z,3.80
2022-10-13T17:04:26.295Z,3.90
2022-10-13T17:06:52.968Z,3.50
2022-10-13T17:09:19.603Z,3.90
2022-10-13T17:11:46.489Z,4.72
2022-10-13T17:14:13.174Z,4.40
2022-10-13T17:16:39.854Z,4.32
2022-10-13T17:19:07.289Z,3.10
2022-10-13T17:21:35.728Z,3.85
2022-10-13T17:24:04.791Z,7.82
2022-10-13T17:26:32.961Z,4.18
2022-10-13T17:28:59.592Z,4.75
2022-10-13T17:31:26.182Z,4.10
2022-10-13T17:33:52.959Z,3.95
2022-10-13T17:36:21.584Z,4.32
2022-10-13T17:38:48.988Z,4.60
2022-10-13T17:41:15.996Z,3.08
2022-10-13T17:43:49.416Z,3.40
2022-10-13T17:49:02.793Z,3.35
2022-10-13T17:51:29.378Z,3.90
2022-10-13T17:53:57.976Z,3.47
2022-10-13T17:56:24.880Z,4.13
2022-10-13T17:58:51.760Z,3.03
2022-10-13T18:01:22.593Z,3.63
2022-10-13T18:03:55.505Z,3.75
2022-10-13T18:06:26.086Z,4.97
2022-10-13T18:08:52.690Z,11.85
2022-10-13T18:11:20.272Z,8.38
2022-10-13T18:13:47.384Z,5.18
2022-10-13T18:16:18.459Z,7.45
2022-10-13T18:18:45.379Z,4.55
2022-10-13T18:21:13.724Z,7.88
2022-10-13T18:23:40.714Z,7.13
2022-10-13T18:26:08.865Z,4.90
2022-10-13T18:28:36.475Z,6.20
2022-10-13T18:31:07.442Z,5.15
2022-10-13T18:33:34.164Z,4.72
2022-10-13T18:36:01.228Z,4.45
2022-10-13T18:38:27.988Z,5.00
2022-10-13T18:40:59.503Z,3.97
2022-10-13T18:43:26.082Z,3.55
2022-10-13T18:45:52.686Z,3.55
2022-10-13T18:48:19.899Z,3.80
2022-10-13T18:50:46.535Z,3.97
2022-10-13T18:53:13.116Z,3.88
2022-10-13T18:55:42.873Z,4.30
2022-10-13T18:58:09.879Z,4.22
2022-10-13T19:00:36.672Z,4.28
2022-10-13T19:03:03.797Z,4.68
2022-10-13T19:05:30.430Z,4.40
2022-10-13T19:07:57.086Z,4.50
2022-10-13T19:10:23.743Z,4.97
2022-10-13T19:12:50.325Z,4.38
2022-10-13T19:15:19.858Z,4.53
2022-10-13T19:17:46.843Z,4.78
2022-10-13T19:20:13.460Z,5.00
2022-10-13T19:22:40.385Z,4.72
2022-10-13T19:25:07.280Z,4.03
2022-10-13T19:27:33.945Z,3.65
2022-10-13T19:30:00.586Z,3.47
2022-10-13T19:32:27.219Z,3.75
2022-10-13T19:34:53.839Z,2.63
2022-10-13T19:37:20.554Z,2.10
2022-10-13T19:39:47.224Z,2.50
2022-10-13T19:42:13.812Z,2.00
2022-10-13T19:44:40.504Z,1.90
2022-10-13T19:47:07.149Z,1.90
2022-10-13T19:49:33.908Z,1.80
2022-10-13T19:52:00.566Z,1.73
2022-10-13T19:54:32.944Z,1.45
2022-10-13T19:57:00.597Z,1.50
2022-10-13T19:59:27.932Z,1.67
2022-10-13T20:01:55.863Z,1.95
2022-10-13T20:04:22.528Z,2.10
2022-10-13T20:06:50.005Z,1.83
2022-10-13T20:09:17.018Z,1.98
2022-10-13T20:11:44.681Z,2.35
2022-10-13T20:14:11.312Z,2.75
2022-10-13T20:16:38.165Z,2.67
2022-10-13T20:19:04.844Z,2.83
2022-10-13T20:21:31.714Z,3.15
2022-10-13T20:23:58.425Z,3.15
2022-10-13T20:26:25.503Z,3.80
2022-10-13T20:28:52.983Z,3.65
2022-10-13T20:31:20.688Z,3.40
2022-10-13T20:33:47.362Z,3.78
2022-10-13T20:36:15.628Z,3.25
2022-10-13T20:38:42.213Z,3.33
2022-10-13T20:41:08.756Z,3.92
2022-10-13T20:43:35.812Z,3.53
2022-10-13T20:46:03.455Z,3.72
2022-10-13T20:48:51.168Z,3.90
2022-10-13T20:51:19.749Z,3.92
2022-10-13T20:53:46.739Z,3.97
2022-10-13T20:56:15.541Z,4.35
2022-10-13T20:58:42.450Z,4.07
2022-10-13T21:01:09.521Z,4.28
2022-10-13T21:03:36.557Z,3.80
2022-10-13T21:06:05.024Z,4.40
2022-10-13T21:08:31.890Z,4.50
2022-10-13T21:11:02.499Z,4.50
2022-10-13T21:13:29.147Z,4.65
2022-10-13T21:15:55.713Z,4.30
2022-10-13T21:18:25.057Z,4.82
2022-10-13T21:20:51.738Z,4.47
2022-10-13T21:23:18.398Z,5.00
2022-10-13T21:25:45.174Z,5.50
2022-10-13T21:28:11.739Z,4.93
2022-10-13T21:30:38.459Z,4.80
2022-10-13T21:33:05.018Z,4.85
2022-10-13T21:35:31.672Z,5.03
2022-10-13T21:37:58.233Z,4.53
2022-10-13T21:40:24.827Z,5.10
2022-10-13T21:42:51.429Z,4.75
2022-10-13T21:45:18.032Z,5.05
2022-10-13T21:47:44.660Z,4.55
2022-10-13T21:50:11.377Z,5.43
2022-10-13T21:52:38.320Z,4.68
2022-10-13T21:55:05.168Z,5.40
2022-10-13T21:57:31.807Z,3.95
2022-10-13T21:59:58.363Z,4.80
2022-10-13T22:02:24.981Z,4.80
2022-10-13T22:04:51.556Z,4.60
2022-10-13T22:07:18.382Z,4.57
2022-10-13T22:09:45.153Z,4.65
2022-10-13T22:12:11.777Z,4.97
2022-10-13T22:14:38.426Z,4.55
2022-10-13T22:17:06.773Z,4.50
2022-10-13T22:19:33.382Z,4.55
2022-10-13T22:22:00.005Z,3.90
2022-10-13T22:24:26.615Z,4.40
2022-10-13T22:26:53.172Z,4.43
2022-10-13T22:29:20.680Z,4.00
2022-10-13T22:31:47.491Z,3.72
2022-10-13T22:34:14.232Z,4.32
2022-10-13T22:36:44.522Z,3.47
2022-10-13T22:39:12.247Z,4.10
2022-10-13T22:41:38.898Z,4.15
2022-10-13T22:44:05.652Z,4.32
2022-10-13T22:46:34.137Z,4.60
2022-10-13T22:49:00.760Z,4.80
2022-10-13T22:51:30.452Z,5.22
2022-10-13T22:53:57.553Z,4.90
2022-10-13T22:56:25.606Z,5.20
2022-10-13T22:58:53.474Z,4.88
2022-10-13T23:01:20.832Z,5.10
2022-10-13T23:03:48.524Z,5.35
2022-10-13T23:06:16.012Z,5.60
2022-10-13T23:08:42.925Z,6.00
2022-10-13T23:11:09.947Z,5.43
2022-10-13T23:13:36.566Z,5.63
2022-10-13T23:16:03.809Z,5.63
2022-10-13T23:18:33.916Z,6.20
2022-10-13T23:21:04.016Z,6.07
2022-10-13T23:23:30.586Z,5.88
2022-10-13T23:26:03.851Z,6.30
2022-10-13T23:28:30.690Z,5.78
2022-10-13T23:31:05.246Z,5.00
2022-10-13T23:33:31.925Z,5.45
2022-10-13T23:35:59.448Z,5.57
2022-10-13T23:38:26.519Z,5.32
2022-10-13T23:40:53.176Z,5.45
2022-10-13T23:43:20.196Z,5.70
2022-10-13T23:45:47.129Z,5.80
2022-10-13T23:48:14.812Z,5.60
2022-10-13T23:50:41.379Z,5.47
2022-10-13T23:53:08.026Z,5.10
2022-10-13T23:55:38.446Z,5.45
2022-10-13T23:58:05.061Z,4.97
